TimeCDT,TemperatureF,Dew PointF,Humidity,Sea Level PressureIn,VisibilityMPH,Wind Direction,Wind SpeedMPH,Gust SpeedMPH,PrecipitationIn,Events,Conditions,WindDirDegrees,DateUTC
12:13 AM,48.2,46.4,93,30.04,10.0,Calm,Calm,-,N/A,,Clear,0,2013-10-10 05:13:00
12:33 AM,53.6,48.2,82,30.04,10.0,South,4.6,-,N/A,,Clear,170,2013-10-10 05:33:00
12:52 AM,53.6,48.2,82,30.04,10.0,Calm,Calm,-,N/A,,Clear,0,2013-10-10 05:52:00
1:13 AM,48.2,46.4,93,30.04,10.0,SSE,3.5,-,N/A,,Clear,150,2013-10-10 06:13:00
1:33 AM,48.2,46.4,93,30.04,10.0,Calm,Calm,-,N/A,,Clear,0,2013-10-10 06:33:00
1:52 AM,46.4,44.6,93,30.04,10.0,Calm,Calm,-,N/A,,Clear,0,2013-10-10 06:52:00
2:13 AM,46.4,44.6,93,30.04,10.0,SSE,3.5,-,N/A,,Clear,150,2013-10-10 07:13:00
2:32 AM,46.4,44.6,93,30.04,10.0,Calm,Calm,-,N/A,,Clear,0,2013-10-10 07:32:00
2:53 AM,46.4,44.6,93,30.03,10.0,Calm,Calm,-,N/A,,Clear,0,2013-10-10 07:53:00
3:12 AM,46.4,44.6,93,30.03,10.0,Calm,Calm,-,N/A,,Clear,0,2013-10-10 08:12:00
3:33 AM,44.6,42.8,93,30.03,10.0,Calm,Calm,-,N/A,,Clear,0,2013-10-10 08:33:00
3:53 AM,44.6,42.8,93,30.03,10.0,Calm,Calm,-,N/A,,Clear,0,2013-10-10 08:53:00
4:12 AM,44.6,42.8,93,30.04,10.0,Calm,Calm,-,N/A,,Clear,0,2013-10-10 09:12:00
4:33 AM,44.6,42.8,93,30.04,10.0,Calm,Calm,-,N/A,,Clear,0,2013-10-10 09:33:00
4:53 AM,44.6,42.8,93,30.04,10.0,Calm,Calm,-,N/A,,Clear,0,2013-10-10 09:53:00
5:12 AM,44.6,42.8,93,30.03,10.0,SSE,3.5,-,N/A,,Clear,150,2013-10-10 10:12:00
5:33 AM,42.8,41.0,93,30.03,10.0,Calm,Calm,-,N/A,,Clear,0,2013-10-10 10:33:00
5:52 AM,44.6,41.0,87,30.03,10.0,Calm,Calm,-,N/A,,Clear,0,2013-10-10 10:52:00
6:13 AM,44.6,42.8,93,30.03,10.0,SE,3.5,-,N/A,,Clear,140,2013-10-10 11:13:00
6:32 AM,46.4,44.6,93,30.03,10.0,SE,4.6,-,N/A,,Clear,140,2013-10-10 11:32:00
6:53 AM,46.4,44.6,93,30.03,10.0,SE,5.8,-,N/A,,Clear,140,2013-10-10 11:53:00
7:13 AM,46.4,42.8,87,30.02,10.0,SE,3.5,-,N/A,,Clear,140,2013-10-10 12:13:00
7:32 AM,44.6,42.8,93,30.02,10.0,SE,3.5,-,N/A,,Clear,130,2013-10-10 12:32:00
7:53 AM,46.4,44.6,93,30.02,10.0,Calm,Calm,-,N/A,,Clear,0,2013-10-10 12:53:00
8:13 AM,50.0,46.4,87,30.02,10.0,SSE,3.5,-,N/A,,Clear,160,2013-10-10 13:13:00
8:33 AM,51.8,46.4,82,30.02,10.0,SSE,3.5,-,N/A,,Clear,160,2013-10-10 13:33:00
8:53 AM,53.6,46.4,77,30.02,10.0,Calm,Calm,-,N/A,,Clear,0,2013-10-10 13:53:00
9:12 AM,55.4,46.4,72,30.01,10.0,South,4.6,-,N/A,,Clear,170,2013-10-10 14:12:00
9:33 AM,57.2,46.4,67,30.02,10.0,South,3.5,-,N/A,,Clear,170,2013-10-10 14:33:00
9:53 AM,59.0,46.4,63,30.01,10.0,SSE,5.8,-,N/A,,Clear,160,2013-10-10 14:53:00
10:12 AM,60.8,46.4,59,30.01,10.0,South,5.8,-,N/A,,Clear,180,2013-10-10 15:12:00
10:33 AM,62.6,46.4,55,30.00,10.0,South,4.6,-,N/A,,Clear,170,2013-10-10 15:33:00
10:53 AM,62.6,48.2,59,30.00,10.0,SSE,5.8,-,N/A,,Clear,150,2013-10-10 15:53:00
11:12 AM,64.4,48.2,56,30.01,10.0,South,5.8,-,N/A,,Clear,180,2013-10-10 16:12:00
11:33 AM,64.4,46.4,52,30.00,10.0,South,6.9,-,N/A,,Clear,170,2013-10-10 16:33:00
11:53 AM,68.0,46.4,46,29.99,10.0,SSE,12.7,16.1,N/A,,Clear,150,2013-10-10 16:53:00
12:12 PM,68.0,46.4,46,29.99,10.0,SSE,11.5,-,N/A,,Clear,160,2013-10-10 17:12:00
12:33 PM,68.0,44.6,43,29.99,10.0,South,9.2,19.6,N/A,,Clear,180,2013-10-10 17:33:00
12:53 PM,69.8,44.6,40,29.98,10.0,South,10.4,21.9,N/A,,Clear,180,2013-10-10 17:53:00
1:12 PM,69.8,44.6,40,29.98,10.0,SSE,9.2,16.1,N/A,,Clear,160,2013-10-10 18:12:00
1:33 PM,69.8,44.6,40,29.97,10.0,South,13.8,20.7,N/A,,Clear,180,2013-10-10 18:33:00
1:53 PM,69.8,42.8,38,29.96,10.0,SSE,15.0,21.9,N/A,,Clear,160,2013-10-10 18:53:00
2:12 PM,71.6,42.8,35,29.95,10.0,South,15.0,20.7,N/A,,Clear,170,2013-10-10 19:12:00
2:33 PM,71.6,41.0,33,29.95,10.0,South,16.1,21.9,N/A,,Clear,180,2013-10-10 19:33:00
2:52 PM,69.8,42.8,38,29.94,10.0,South,10.4,20.7,N/A,,Clear,170,2013-10-10 19:52:00
3:13 PM,71.6,42.8,35,29.94,10.0,South,12.7,18.4,N/A,,Clear,170,2013-10-10 20:13:00
3:32 PM,71.6,42.8,35,29.94,10.0,SSE,12.7,17.3,N/A,,Clear,160,2013-10-10 20:32:00
3:53 PM,71.6,42.8,35,29.93,10.0,SSE,10.4,-,N/A,,Clear,160,2013-10-10 20:53:00
4:13 PM,71.6,42.8,35,29.93,10.0,South,12.7,19.6,N/A,,Clear,180,2013-10-10 21:13:00
4:32 PM,69.8,42.8,38,29.93,10.0,SSE,12.7,16.1,N/A,,Clear,160,2013-10-10 21:32:00
4:53 PM,68.0,42.8,40,29.94,10.0,SSE,12.7,-,N/A,,Clear,150,2013-10-10 21:53:00
5:13 PM,66.2,42.8,43,29.94,10.0,SSE,8.1,16.1,N/A,,Clear,160,2013-10-10 22:13:00
5:32 PM,66.2,44.6,46,29.94,10.0,SSE,8.1,-,N/A,,Clear,150,2013-10-10 22:32:00
5:53 PM,64.4,44.6,49,29.94,10.0,SSE,9.2,-,N/A,,Clear,150,2013-10-10 22:53:00
6:13 PM,62.6,46.4,55,29.94,10.0,SE,8.1,-,N/A,,Clear,130,2013-10-10 23:13:00
6:32 PM,60.8,44.6,55,29.94,10.0,SE,9.2,-,N/A,,Clear,140,2013-10-10 23:32:00
6:53 PM,60.8,44.6,55,29.94,10.0,SE,8.1,-,N/A,,Clear,140,2013-10-10 23:53:00
7:13 PM,60.8,44.6,55,29.95,10.0,SE,6.9,-,N/A,,Clear,140,2013-10-11 00:13:00
7:32 PM,59.0,44.6,59,29.94,10.0,SE,9.2,-,N/A,,Clear,140,2013-10-11 00:32:00
7:53 PM,59.0,44.6,59,29.94,10.0,SE,8.1,-,N/A,,Clear,140,2013-10-11 00:53:00
8:13 PM,59.0,44.6,59,29.95,10.0,SE,8.1,-,N/A,,Clear,140,2013-10-11 01:13:00
8:33 PM,57.2,44.6,63,29.95,10.0,SE,6.9,-,N/A,,Clear,140,2013-10-11 01:33:00
8:53 PM,57.2,42.8,59,29.95,10.0,SE,8.1,-,N/A,,Clear,140,2013-10-11 01:53:00
9:13 PM,57.2,42.8,59,29.96,10.0,SE,9.2,-,N/A,,Clear,140,2013-10-11 02:13:00
9:33 PM,57.2,42.8,59,29.96,10.0,SE,10.4,-,N/A,,Clear,140,2013-10-11 02:33:00
9:52 PM,55.4,42.8,63,29.96,10.0,SE,8.1,-,N/A,,Scattered Clouds,140,2013-10-11 02:52:00
10:13 PM,55.4,42.8,63,29.96,10.0,SE,8.1,-,N/A,,Scattered Clouds,140,2013-10-11 03:13:00
10:33 PM,55.4,42.8,63,29.96,10.0,SE,9.2,-,N/A,,Clear,140,2013-10-11 03:33:00
10:52 PM,53.6,42.8,67,29.96,10.0,SE,8.1,-,N/A,,Clear,140,2013-10-11 03:52:00
11:13 PM,53.6,42.8,67,29.96,10.0,SE,5.8,-,N/A,,Clear,130,2013-10-11 04:13:00
11:33 PM,55.4,42.8,63,29.96,10.0,SE,3.5,-,N/A,,Clear,140,2013-10-11 04:33:00
11:52 PM,55.4,42.8,63,29.96,10.0,SE,5.8,-,N/A,,Clear,140,2013-10-11 04:52:00